createdAt,value
2023-03-12T00:01:19.964Z,11.07
2023-03-12T00:03:49.527Z,11.48
2023-03-12T00:06:19.393Z,10.77
2023-03-12T00:08:48.830Z,14.30
2023-03-12T00:11:19.623Z,36.40
2023-03-12T00:13:52.676Z,34.67
2023-03-12T00:16:21.731Z,27.55
2023-03-12T00:18:52.168Z,33.92
2023-03-12T00:21:21.856Z,113.07
2023-03-12T00:23:51.001Z,101.82
2023-03-12T00:26:20.104Z,79.47
2023-03-12T00:28:49.675Z,74.20
2023-03-12T00:31:22.513Z,77.28
2023-03-12T00:33:50.874Z,85.85
2023-03-12T00:36:21.032Z,113.70
2023-03-12T00:38:49.383Z,95.80
2023-03-12T00:41:18.299Z,92.72
2023-03-12T00:43:47.659Z,86.53
2023-03-12T00:46:16.265Z,75.35
2023-03-12T00:48:45.361Z,71.70
2023-03-12T00:51:13.952Z,52.47
2023-03-12T00:53:42.507Z,45.67
2023-03-12T00:56:11.116Z,34.60
2023-03-12T00:58:39.495Z,28.38
2023-03-12T01:01:07.686Z,17.30
2023-03-12T01:03:36.258Z,12.07
2023-03-12T01:06:04.738Z,11.82
2023-03-12T01:08:34.503Z,9.93
2023-03-12T01:11:02.903Z,8.63
2023-03-12T01:13:31.493Z,9.93
2023-03-12T01:15:59.936Z,9.57
2023-03-12T01:18:28.395Z,10.73
2023-03-12T01:20:56.715Z,8.32
2023-03-12T01:23:25.817Z,8.38
2023-03-12T01:25:53.997Z,8.65
2023-03-12T01:28:24.157Z,9.85
2023-03-12T01:30:52.962Z,10.05
2023-03-12T01:33:21.242Z,10.82
2023-03-12T01:35:49.686Z,12.15
2023-03-12T01:38:18.361Z,16.60
2023-03-12T01:40:46.708Z,15.50
2023-03-12T01:43:31.110Z,14.25
2023-03-12T01:46:03.438Z,12.23
2023-03-12T01:48:42.119Z,13.30
2023-03-12T01:51:13.193Z,12.95
2023-03-12T01:53:45.106Z,12.15
2023-03-12T01:56:15.429Z,15.77
2023-03-12T01:58:51.313Z,13.65
2023-03-12T02:01:21.414Z,13.38
2023-03-12T02:03:54.225Z,13.88
2023-03-12T02:06:35.158Z,12.10
2023-03-12T02:09:06.313Z,15.32
2023-03-12T02:11:34.792Z,25.93
2023-03-12T02:14:11.742Z,28.67
2023-03-12T02:16:40.205Z,14.65
2023-03-12T02:19:21.218Z,11.02
2023-03-12T02:21:49.741Z,9.25
2023-03-12T02:24:40.098Z,7.75
2023-03-12T02:27:12.059Z,8.60
2023-03-12T02:29:43.006Z,8.25
2023-03-12T02:32:18.565Z,7.30
2023-03-12T02:34:46.840Z,8.45
2023-03-12T02:37:15.443Z,9.27
2023-03-12T02:39:47.308Z,9.95
2023-03-12T02:42:15.757Z,15.77
2023-03-12T02:44:44.088Z,19.80
2023-03-12T02:47:12.889Z,19.95
2023-03-12T02:49:41.164Z,17.45
2023-03-12T02:52:09.614Z,17.88
2023-03-12T02:54:37.798Z,17.00
2023-03-12T02:57:05.968Z,17.35
2023-03-12T02:59:35.742Z,15.68
2023-03-12T03:02:05.543Z,16.88
2023-03-12T03:04:34.095Z,15.43
2023-03-12T03:07:02.564Z,17.52
2023-03-12T03:09:30.847Z,18.85
2023-03-12T03:11:59.270Z,18.33
2023-03-12T03:14:29.714Z,19.60
2023-03-12T03:16:58.010Z,18.23
2023-03-12T03:19:26.231Z,18.70
2023-03-12T03:21:54.424Z,19.90
2023-03-12T03:24:22.692Z,21.27
2023-03-12T03:26:51.078Z,28.75
2023-03-12T03:29:19.439Z,28.42
2023-03-12T03:31:48.307Z,28.15
2023-03-12T03:34:16.643Z,27.30
2023-03-12T03:36:44.986Z,27.55
2023-03-12T03:39:16.073Z,25.10
2023-03-12T03:41:44.501Z,23.05
2023-03-12T03:44:12.833Z,19.77
2023-03-12T03:46:41.819Z,20.77
2023-03-12T03:49:11.931Z,20.45
2023-03-12T03:51:42.492Z,16.33
2023-03-12T03:54:13.723Z,13.67
2023-03-12T03:56:43.415Z,12.93
2023-03-12T03:59:12.408Z,13.70
2023-03-12T04:01:42.366Z,13.63
2023-03-12T04:04:10.640Z,14.15
2023-03-12T04:06:39.222Z,13.63
2023-03-12T04:09:07.668Z,15.05
2023-03-12T04:11:37.759Z,14.82
2023-03-12T04:14:07.793Z,12.60
2023-03-12T04:16:38.330Z,14.38
2023-03-12T04:19:06.599Z,14.07
2023-03-12T04:21:34.839Z,13.80
2023-03-12T04:24:03.243Z,14.05
2023-03-12T04:26:34.481Z,14.47
2023-03-12T04:29:04.024Z,15.82
2023-03-12T04:31:32.912Z,15.57
2023-03-12T04:34:01.248Z,15.65
2023-03-12T04:36:30.237Z,13.80
2023-03-12T04:38:58.794Z,17.25
2023-03-12T04:41:31.946Z,21.25
2023-03-12T04:44:07.871Z,26.92
2023-03-12T04:46:37.671Z,21.77
2023-03-12T04:49:06.296Z,20.10
2023-03-12T04:51:37.511Z,17.13
2023-03-12T04:54:07.107Z,14.27
2023-03-12T04:56:36.494Z,11.65
2023-03-12T04:59:05.555Z,12.40
2023-03-12T05:01:36.166Z,11.52
2023-03-12T05:04:09.573Z,13.05
2023-03-12T05:06:37.935Z,13.35
2023-03-12T05:09:06.110Z,13.40
2023-03-12T05:11:34.481Z,14.38
2023-03-12T05:14:02.842Z,12.52
2023-03-12T05:16:31.215Z,14.20
2023-03-12T05:18:59.642Z,15.15
2023-03-12T05:21:28.214Z,13.98
2023-03-12T05:23:59.239Z,13.90
2023-03-12T05:26:33.505Z,12.20
2023-03-12T05:29:11.598Z,12.60
2023-03-12T05:31:39.928Z,13.68
2023-03-12T05:34:13.143Z,13.55
2023-03-12T05:36:44.087Z,14.02
2023-03-12T05:39:13.927Z,14.48
2023-03-12T05:41:42.186Z,12.55
2023-03-12T05:44:17.917Z,11.38
2023-03-12T05:46:51.761Z,13.98
2023-03-12T05:49:21.120Z,15.18
2023-03-12T05:51:50.384Z,13.77
2023-03-12T05:54:20.505Z,16.05
2023-03-12T05:56:51.554Z,13.68
2023-03-12T05:59:21.577Z,14.23
2023-03-12T06:01:50.971Z,14.65
2023-03-12T06:04:19.363Z,15.88
2023-03-12T06:06:48.308Z,12.45
2023-03-12T06:09:16.683Z,14.13
2023-03-12T06:11:44.970Z,12.45
2023-03-12T06:14:13.386Z,12.07
2023-03-12T06:16:42.005Z,14.52
2023-03-12T06:19:12.845Z,13.43
2023-03-12T06:21:43.066Z,13.27
2023-03-12T06:24:12.090Z,14.32
2023-03-12T06:26:50.171Z,13.27
2023-03-12T06:29:18.546Z,14.57
2023-03-12T06:31:46.679Z,12.88
2023-03-12T06:34:15.248Z,13.40
2023-03-12T06:36:43.412Z,13.82
2023-03-12T06:39:11.584Z,14.85
2023-03-12T06:41:39.942Z,13.82
2023-03-12T06:44:08.089Z,15.68
2023-03-12T06:46:36.493Z,17.33
2023-03-12T06:49:05.003Z,14.13
2023-03-12T06:51:33.460Z,14.65
2023-03-12T06:54:01.677Z,14.65
2023-03-12T06:56:31.189Z,13.80
2023-03-12T06:58:59.375Z,14.20
2023-03-12T07:01:27.540Z,15.80
2023-03-12T07:03:55.725Z,16.35
2023-03-12T07:06:25.531Z,12.77
2023-03-12T07:08:53.969Z,16.50
2023-03-12T07:11:22.311Z,15.30
2023-03-12T07:13:50.661Z,14.65
2023-03-12T07:16:18.940Z,19.65
2023-03-12T07:18:47.427Z,13.30
2023-03-12T07:21:15.921Z,13.95
2023-03-12T07:23:44.211Z,14.30
2023-03-12T07:26:12.467Z,13.88
2023-03-12T07:28:40.647Z,13.27
2023-03-12T07:31:09.081Z,12.15
2023-03-12T07:33:37.683Z,12.75
2023-03-12T07:36:06.642Z,15.93
2023-03-12T07:38:34.872Z,15.70
2023-03-12T07:41:03.094Z,14.48
2023-03-12T07:43:31.384Z,13.80
2023-03-12T07:46:02.390Z,14.63
2023-03-12T07:48:30.638Z,17.30
2023-03-12T07:50:58.958Z,15.52
2023-03-12T07:53:27.144Z,17.70
2023-03-12T07:55:56.106Z,17.83
2023-03-12T07:58:24.681Z,15.10
2023-03-12T08:00:55.140Z,15.20
2023-03-12T08:03:23.735Z,17.88
2023-03-12T08:06:00.508Z,14.85
2023-03-12T08:08:29.398Z,18.00
2023-03-12T08:10:57.841Z,16.77
2023-03-12T08:13:26.836Z,17.00
2023-03-12T08:15:55.604Z,21.45
2023-03-12T08:18:24.210Z,20.90
2023-03-12T08:20:54.319Z,22.40
2023-03-12T08:23:23.634Z,23.52
2023-03-12T08:25:52.094Z,17.33
2023-03-12T08:28:21.564Z,14.73
2023-03-12T08:30:55.790Z,16.98
2023-03-12T08:33:24.117Z,16.70
2023-03-12T08:35:52.342Z,18.63
2023-03-12T08:38:21.283Z,17.58
2023-03-12T08:40:56.564Z,16.98
2023-03-12T08:43:25.426Z,17.33
2023-03-12T08:46:01.720Z,17.42
2023-03-12T08:48:31.953Z,16.90
2023-03-12T08:51:02.388Z,15.45
2023-03-12T08:53:31.968Z,14.60
2023-03-12T08:56:00.409Z,13.55
2023-03-12T08:58:29.795Z,13.13
2023-03-12T09:00:58.886Z,14.10
2023-03-12T09:03:27.679Z,14.10
2023-03-12T09:06:10.408Z,14.68
2023-03-12T09:08:38.726Z,15.20
2023-03-12T09:11:08.777Z,13.20
2023-03-12T09:13:58.116Z,13.07
2023-03-12T09:16:25.702Z,13.70
2023-03-12T09:18:54.102Z,14.80
2023-03-12T09:21:22.623Z,14.38
2023-03-12T09:23:50.842Z,12.25
2023-03-12T09:26:18.991Z,14.25
2023-03-12T09:28:47.350Z,13.20
2023-03-12T09:31:15.835Z,12.13
2023-03-12T09:33:44.083Z,13.60
2023-03-12T09:36:12.384Z,11.40
2023-03-12T09:38:40.912Z,10.15
2023-03-12T09:41:18.799Z,12.77
2023-03-12T09:44:03.073Z,12.85
2023-03-12T09:46:57.611Z,10.70
2023-03-12T09:49:35.302Z,11.07
2023-03-12T09:52:13.927Z,12.55
2023-03-12T09:55:12.367Z,14.88
2023-03-12T09:57:41.325Z,11.50
2023-03-12T10:00:15.125Z,11.23
2023-03-12T10:02:53.661Z,12.50
2023-03-12T10:05:32.485Z,16.88
2023-03-12T10:08:24.455Z,30.52
2023-03-12T10:11:23.901Z,105.22
2023-03-12T10:14:23.968Z,18.65
2023-03-12T10:17:12.076Z,11.75
2023-03-12T10:20:14.023Z,11.63
2023-03-12T10:25:37.872Z,11.25
2023-03-12T10:28:48.825Z,9.57
2023-03-12T10:31:24.355Z,10.95
2023-03-12T10:33:58.329Z,13.55
2023-03-12T10:36:49.966Z,10.57
2023-03-12T10:39:21.001Z,8.52
2023-03-12T10:41:50.272Z,9.00
2023-03-12T10:44:24.522Z,9.20
2023-03-12T10:47:03.839Z,9.32
2023-03-12T10:49:40.818Z,7.55
2023-03-12T10:52:19.754Z,7.60
2023-03-12T10:54:50.625Z,8.63
2023-03-12T10:57:19.804Z,6.57
2023-03-12T10:59:49.762Z,10.18
2023-03-12T11:02:55.793Z,6.85
2023-03-12T11:05:32.872Z,6.85
2023-03-12T11:08:02.520Z,7.28
2023-03-12T11:10:33.699Z,9.45
2023-03-12T11:13:20.605Z,7.40
2023-03-12T11:15:49.285Z,6.20
2023-03-12T11:18:37.513Z,6.18
2023-03-12T11:21:09.899Z,7.07
2023-03-12T11:23:59.928Z,6.38
2023-03-12T11:26:43.627Z,6.20
2023-03-12T11:29:50.358Z,5.75
2023-03-12T11:32:38.970Z,7.63
2023-03-12T11:35:14.901Z,7.80
2023-03-12T11:38:24.615Z,6.68
2023-03-12T11:41:16.782Z,6.60
2023-03-12T11:44:02.812Z,6.07
2023-03-12T11:46:38.862Z,4.60
2023-03-12T11:49:10.376Z,5.80
2023-03-12T11:51:53.948Z,5.38
2023-03-12T11:54:37.714Z,6.40
2023-03-12T11:57:25.107Z,6.45
2023-03-12T12:00:03.373Z,6.57
2023-03-12T12:03:16.374Z,5.35
2023-03-12T12:06:03.058Z,6.03
2023-03-12T12:08:49.929Z,6.28
2023-03-12T12:11:39.384Z,5.75
2023-03-12T12:14:43.962Z,6.10
2023-03-12T12:17:31.671Z,5.65
2023-03-12T12:20:15.432Z,5.50
2023-03-12T12:23:05.301Z,6.57
2023-03-12T12:25:36.777Z,6.03
2023-03-12T12:28:14.323Z,5.68
2023-03-12T12:30:45.768Z,6.82
2023-03-12T12:33:32.876Z,6.05
2023-03-12T12:36:01.976Z,5.47
2023-03-12T12:38:36.365Z,5.72
2023-03-12T12:41:28.936Z,6.63
2023-03-12T12:44:01.756Z,6.93
2023-03-12T12:46:36.163Z,6.32
2023-03-12T12:49:12.173Z,5.00
2023-03-12T12:51:58.999Z,8.30
2023-03-12T12:54:42.325Z,6.18
2023-03-12T12:57:45.335Z,7.22
2023-03-12T13:00:26.143Z,7.13
2023-03-12T13:02:56.997Z,6.20
2023-03-12T13:05:41.295Z,6.73
2023-03-12T13:08:29.706Z,7.03
2023-03-12T13:11:15.477Z,7.25
2023-03-12T13:14:13.331Z,6.53
2023-03-12T13:16:46.281Z,8.23
2023-03-12T13:19:14.794Z,8.93
2023-03-12T13:22:10.000Z,5.97
2023-03-12T13:24:51.999Z,7.70
2023-03-12T13:27:31.216Z,5.43
2023-03-12T13:29:59.832Z,7.07
2023-03-12T13:32:37.578Z,5.60
2023-03-12T13:35:17.898Z,6.85
2023-03-12T13:38:01.542Z,6.13
2023-03-12T13:40:32.501Z,6.78
2023-03-12T13:43:03.750Z,4.93
2023-03-12T13:45:32.380Z,5.93
2023-03-12T13:48:05.465Z,4.50
2023-03-12T13:50:43.064Z,5.57
2023-03-12T13:53:20.807Z,6.57
2023-03-12T13:56:03.973Z,6.22
2023-03-12T13:58:32.703Z,8.10
2023-03-12T14:01:07.361Z,6.90
2023-03-12T14:03:42.148Z,6.95
2023-03-12T14:06:18.041Z,8.05
2023-03-12T14:09:00.683Z,5.63
2023-03-12T14:12:02.935Z,5.13
2023-03-12T14:14:47.665Z,5.22
2023-03-12T14:17:28.318Z,4.25
2023-03-12T14:20:20.835Z,5.60
2023-03-12T14:23:16.136Z,4.68
2023-03-12T14:25:47.254Z,5.00
2023-03-12T14:28:22.487Z,4.43
2023-03-12T14:30:53.530Z,4.82
2023-03-12T14:33:24.144Z,4.80
2023-03-12T14:36:04.090Z,6.00
2023-03-12T14:38:38.465Z,5.30
2023-03-12T14:41:19.396Z,5.30
2023-03-12T14:43:51.647Z,4.70
2023-03-12T14:46:24.927Z,9.55
2023-03-12T14:48:55.378Z,4.43
2023-03-12T14:51:29.846Z,4.88
2023-03-12T14:54:04.524Z,4.78
2023-03-12T14:56:34.392Z,6.90
2023-03-12T14:59:26.318Z,25.95
2023-03-12T15:04:27.520Z,6.97
2023-03-12T15:06:58.885Z,4.82
2023-03-12T15:09:29.596Z,5.07
2023-03-12T15:12:07.425Z,8.17
2023-03-12T15:14:41.617Z,9.13
2023-03-12T15:17:24.562Z,12.38
2023-03-12T15:19:54.091Z,11.77
2023-03-12T15:22:24.298Z,10.68
2023-03-12T15:24:53.129Z,5.70
2023-03-12T15:27:27.691Z,5.38
2023-03-12T15:29:59.200Z,5.13
2023-03-12T15:32:29.978Z,6.80
2023-03-12T15:34:59.517Z,7.78
2023-03-12T15:37:35.921Z,8.45
2023-03-12T15:40:20.390Z,10.88
2023-03-12T15:42:50.219Z,4.95
2023-03-12T15:45:25.948Z,7.68
2023-03-12T15:47:55.792Z,4.30
2023-03-12T15:50:44.216Z,7.10
2023-03-12T15:53:15.712Z,5.57
2023-03-12T15:55:55.125Z,6.30
2023-03-12T15:58:36.005Z,7.97
2023-03-12T16:01:16.077Z,5.50
2023-03-12T16:03:46.142Z,6.68
2023-03-12T16:06:20.251Z,7.53
2023-03-12T16:08:54.103Z,8.63
2023-03-12T16:11:26.439Z,7.63
2023-03-12T16:14:04.253Z,9.20
2023-03-12T16:16:32.545Z,4.95
2023-03-12T16:19:01.051Z,4.70
2023-03-12T16:21:29.568Z,5.43
2023-03-12T16:23:57.696Z,5.40
2023-03-12T16:26:26.114Z,5.90
2023-03-12T16:28:54.414Z,5.35
2023-03-12T16:31:22.668Z,5.20
2023-03-12T16:33:51.158Z,4.15
2023-03-12T16:36:19.466Z,5.93
2023-03-12T16:38:48.389Z,5.57
2023-03-12T16:41:19.375Z,6.10
2023-03-12T16:43:51.037Z,4.63
2023-03-12T16:48:53.162Z,4.50
2023-03-12T16:51:22.330Z,5.05
2023-03-12T16:54:05.304Z,6.95
2023-03-12T16:56:36.814Z,5.45
2023-03-12T16:59:08.538Z,6.20
2023-03-12T17:01:37.407Z,6.10
2023-03-12T17:04:05.793Z,7.18
2023-03-12T17:06:35.404Z,10.75
2023-03-12T17:09:04.926Z,13.93
2023-03-12T17:11:33.314Z,16.45
2023-03-12T17:14:05.389Z,8.68
2023-03-12T17:16:33.749Z,20.98
2023-03-12T17:19:01.953Z,14.82
2023-03-12T17:21:30.165Z,23.98
2023-03-12T17:23:58.911Z,12.50
2023-03-12T17:26:27.387Z,12.90
2023-03-12T17:28:55.719Z,25.15
2023-03-12T17:31:24.067Z,19.02
2023-03-12T17:33:52.585Z,19.52
2023-03-12T17:36:22.307Z,11.68
2023-03-12T17:38:51.080Z,6.97
2023-03-12T17:41:26.471Z,5.78
2023-03-12T17:43:56.168Z,8.88
2023-03-12T17:46:24.507Z,9.27
2023-03-12T17:48:53.509Z,10.43
2023-03-12T17:51:22.036Z,10.02
2023-03-12T17:53:50.537Z,9.52
2023-03-12T17:56:18.824Z,11.25
2023-03-12T17:58:47.729Z,10.20
2023-03-12T18:01:17.212Z,9.63
2023-03-12T18:03:45.782Z,14.05
2023-03-12T18:06:14.175Z,12.65
2023-03-12T18:08:42.497Z,9.55
2023-03-12T18:11:10.927Z,6.93
2023-03-12T18:13:40.902Z,10.27
2023-03-12T18:16:09.511Z,11.82
2023-03-12T18:18:37.878Z,13.02
2023-03-12T18:21:06.508Z,13.57
2023-03-12T18:23:34.703Z,10.93
2023-03-12T18:26:03.322Z,8.95
2023-03-12T18:28:31.641Z,10.65
2023-03-12T18:30:59.688Z,10.55
2023-03-12T18:33:27.901Z,11.82
2023-03-12T18:35:56.339Z,8.90
2023-03-12T18:38:24.483Z,11.10
2023-03-12T18:40:52.843Z,11.07
2023-03-12T18:43:22.022Z,11.15
2023-03-12T18:45:51.104Z,13.27
2023-03-12T18:48:19.495Z,14.63
2023-03-12T18:50:47.970Z,10.15
2023-03-12T18:53:16.226Z,9.95
2023-03-12T18:56:00.321Z,10.02
2023-03-12T18:58:29.390Z,14.70
2023-03-12T19:00:59.250Z,16.65
2023-03-12T19:03:27.732Z,24.45
2023-03-12T19:06:11.195Z,20.55
2023-03-12T19:08:40.396Z,31.75
2023-03-12T19:11:14.396Z,30.52
2023-03-12T19:13:43.556Z,25.15
2023-03-12T19:16:14.745Z,25.30
2023-03-12T19:18:43.130Z,25.40
2023-03-12T19:21:11.474Z,14.57
2023-03-12T19:36:26.470Z,12.32
2023-03-12T19:38:54.743Z,16.83
2023-03-12T19:41:23.163Z,23.92
2023-03-12T19:43:51.462Z,21.15
2023-03-12T19:46:19.858Z,18.15
2023-03-12T19:48:48.292Z,20.75
2023-03-12T19:51:16.579Z,21.30
2023-03-12T19:53:44.823Z,28.02
2023-03-12T19:56:13.460Z,44.35
2023-03-12T19:58:41.823Z,39.70
2023-03-12T20:01:10.122Z,28.13
2023-03-12T20:03:38.551Z,25.30
2023-03-12T20:06:12.328Z,44.00
2023-03-12T20:08:40.845Z,64.10
2023-03-12T20:11:11.267Z,28.20
2023-03-12T20:13:39.977Z,20.00
2023-03-12T20:16:08.972Z,28.67
2023-03-12T20:18:37.251Z,94.53
2023-03-12T20:21:05.937Z,109.50
2023-03-12T20:23:34.400Z,231.32
2023-03-12T20:26:02.732Z,196.63
2023-03-12T20:28:31.139Z,157.57
2023-03-12T20:31:06.962Z,133.55
2023-03-12T20:33:35.496Z,133.93
2023-03-12T20:36:08.914Z,105.55
2023-03-12T20:38:38.011Z,104.97
2023-03-12T20:41:11.760Z,127.75
2023-03-12T20:43:44.403Z,85.18
2023-03-12T20:46:17.476Z,243.90
2023-03-12T20:48:45.802Z,129.10
2023-03-12T20:51:14.175Z,129.18
2023-03-12T20:53:42.579Z,144.25
2023-03-12T20:56:11.527Z,117.43
2023-03-12T20:58:40.084Z,39.88
2023-03-12T21:01:08.591Z,17.95
2023-03-12T21:03:36.930Z,23.35
2023-03-12T21:06:05.638Z,25.58
2023-03-12T21:08:34.104Z,20.52
2023-03-12T21:11:05.519Z,17.45
2023-03-12T21:13:33.901Z,22.77
2023-03-12T21:16:05.175Z,21.85
2023-03-12T21:18:34.179Z,22.08
2023-03-12T21:21:07.730Z,19.63
2023-03-12T21:23:36.788Z,18.33
2023-03-12T21:26:09.226Z,17.48
2023-03-12T21:28:38.123Z,18.30
2023-03-12T21:31:12.583Z,14.38
2023-03-12T21:33:41.209Z,14.05
2023-03-12T21:36:11.763Z,15.82
2023-03-12T21:38:41.037Z,14.05
2023-03-12T21:41:17.821Z,13.68
2023-03-12T21:43:47.413Z,12.85
2023-03-12T21:46:20.705Z,13.98
2023-03-12T21:48:49.405Z,12.57
2023-03-12T21:51:18.798Z,13.07
2023-03-12T21:53:47.139Z,12.98
2023-03-12T21:56:15.420Z,11.45
2023-03-12T21:58:43.755Z,10.57
2023-03-12T22:01:15.070Z,13.25
2023-03-12T22:03:45.813Z,11.68
2023-03-12T22:06:15.378Z,13.48
2023-03-12T22:08:45.261Z,11.85
2023-03-12T22:11:13.734Z,13.82
2023-03-12T22:13:42.020Z,12.60
2023-03-12T22:16:11.817Z,12.80
2023-03-12T22:18:41.907Z,12.57
2023-03-12T22:33:22.524Z,10.18
2023-03-12T22:35:50.861Z,12.00
2023-03-12T22:38:19.099Z,10.40
2023-03-12T22:40:47.483Z,7.93
2023-03-12T22:43:16.155Z,8.07
2023-03-12T22:45:44.379Z,7.88
2023-03-12T22:48:12.706Z,8.27
2023-03-12T22:50:40.959Z,8.82
2023-03-12T22:53:09.079Z,10.35
2023-03-12T22:55:37.377Z,18.73
2023-03-12T22:58:05.557Z,8.55
2023-03-12T23:00:33.657Z,9.70
2023-03-12T23:03:01.964Z,8.75
2023-03-12T23:05:30.176Z,8.65
2023-03-12T23:07:58.411Z,11.20
2023-03-12T23:10:26.789Z,13.75
2023-03-12T23:12:54.882Z,14.35
2023-03-12T23:15:29.073Z,12.18
2023-03-12T23:18:03.576Z,10.00
2023-03-12T23:20:31.843Z,11.10
2023-03-12T23:23:00.128Z,9.65
2023-03-12T23:25:28.317Z,11.07
2023-03-12T23:27:56.733Z,10.70
2023-03-12T23:30:25.008Z,10.30
2023-03-12T23:32:53.441Z,12.85
2023-03-12T23:35:21.891Z,11.77
2023-03-12T23:37:50.798Z,13.00
2023-03-12T23:40:19.073Z,12.45
2023-03-12T23:42:47.237Z,12.25
2023-03-12T23:45:15.676Z,12.25
2023-03-12T23:47:43.955Z,11.68
2023-03-12T23:50:12.862Z,9.68
2023-03-12T23:52:41.152Z,10.40
2023-03-12T23:55:09.832Z,8.60
2023-03-12T23:57:38.044Z,9.43
